Grenora, ND (58845)

6:03 PM CST on February 24, 2017 (GMT -0600)
Robinson Street | | Change Station

Elev 2129 ft 48.62 °N, 103.93 °W | Updated 50 seconds ago

Partly Cloudy
Partly Cloudy
28.4 °F
Feels Like 28 °F
N
0.6
Wind Variable Wind from West
Gusts 2.5 mph

Today
High -- | Low -- °F
--% Chance of Precip.
Yesterday
High -- | Low -- °F
Precip. -- in
Pressure 30.19 in
Visibility 10.0 miles
Clouds Overcast 4600 ft
Windchill 28 °F
Dew Point 20 °F
Humidity 71%
Rainfall Not available.
Snow Depth Not available.
7:46 AM 6:32 PM
Waning Crescent, 3% visible
METAR KISN 242352Z AUTO 21007KT 10SM OVC046 M03/M09 A3009 RMK AO2 SLP223 T10281094 11022 21039 57008
Pressure 30.19 in
Visibility 10.0 miles
Clouds Overcast 4600 ft
Windchill 28 °F
Dew Point 20 °F
Humidity 71%
Rainfall Not available.
Snow Depth Not available.
7:46 AM 6:32 PM
Waning Crescent, 3% visible
METAR KISN 242352Z AUTO 21007KT 10SM OVC046 M03/M09 A3009 RMK AO2 SLP223 T10281094 11022 21039 57008

Get Your Daily Forecast Email!

Thanks for signing up!

Be on the lookout for a verification email in your inbox.

You'll start receiving the daily forecast at 8 AM.

×

10-Day Weather Forecast

Almanac

Astronomy

Feb. 24, 2017 Rise Set
Actual Time
Civil Twilight
Nautical Twilight
Astronomical Twilight
Moon
Length of Visible Light
Length of Day
Tomorrow will be .
, % of the Moon is Illuminated

Today's Extremes

State Highs State Lows

Community

WunderPhotos

Upload Photos

1,962,540 photos uploaded!

WunderBlog® & News

Nearby

Air Quality

  Air Quality AQ Index Pollutant
Not available.

Snow Depth

Station Depth Elevation

Earthquake Activity

City Distance Mag. Time & Date
Minimum magnitude displayed is 2.5.

Coastal Water Temperatures

Place Temperature

Stations

Nearby Weather Stations

Station Location Temp. Windchill Dew Point Humidity Wind Precip. Elev Updated Type
                   

Watches & Warnings

There are currently no watches in effect.